createdAt,value
2017-11-28T00:00:59.777Z,0
2017-11-28T00:02:01.530Z,0
2017-11-28T00:03:03.329Z,0
2017-11-28T00:04:05.061Z,0
2017-11-28T00:05:06.814Z,0
2017-11-28T00:06:08.647Z,0
2017-11-28T00:07:10.412Z,0
2017-11-28T00:08:12.075Z,0
2017-11-28T00:09:13.845Z,0
2017-11-28T00:10:15.568Z,0
2017-11-28T00:11:17.233Z,0
2017-11-28T00:12:19.064Z,0
2017-11-28T00:13:20.756Z,0
2017-11-28T00:14:22.562Z,0
2017-11-28T00:15:24.313Z,0
2017-11-28T00:16:26.113Z,0
2017-11-28T00:17:27.799Z,0
2017-11-28T00:18:29.499Z,0
2017-11-28T00:19:31.259Z,0
2017-11-28T00:20:33.138Z,0
2017-11-28T00:21:34.915Z,0
2017-11-28T00:22:36.839Z,0
2017-11-28T00:23:38.679Z,0
2017-11-28T00:24:40.599Z,0
2017-11-28T00:25:42.237Z,0
2017-11-28T00:26:44.036Z,0
2017-11-28T00:27:45.924Z,0
2017-11-28T00:28:47.985Z,0
2017-11-28T00:29:49.737Z,0
2017-11-28T00:30:51.500Z,0
2017-11-28T00:31:53.253Z,0
2017-11-28T00:32:55.075Z,0
2017-11-28T00:33:57.004Z,0
2017-11-28T00:34:58.840Z,0
2017-11-28T00:36:00.403Z,0
2017-11-28T00:37:02.202Z,0
2017-11-28T00:38:04.100Z,0
2017-11-28T00:39:06.263Z,0
2017-11-28T00:40:08.099Z,0
2017-11-28T00:41:11.187Z,0
2017-11-28T00:42:13.389Z,0
2017-11-28T00:43:15.112Z,0
2017-11-28T00:44:17.110Z,0
2017-11-28T00:45:18.803Z,0
2017-11-28T00:46:20.560Z,0
2017-11-28T00:47:22.259Z,0
2017-11-28T00:48:24.060Z,0
2017-11-28T00:49:25.820Z,0
2017-11-28T00:50:27.979Z,0
2017-11-28T00:51:29.691Z,0
2017-11-28T00:52:31.612Z,0
2017-11-28T00:53:34.516Z,0
2017-11-28T00:54:36.388Z,0
2017-11-28T00:55:38.135Z,0
2017-11-28T00:56:39.862Z,0
2017-11-28T00:57:41.620Z,0
2017-11-28T00:58:43.280Z,0
2017-11-28T00:59:45.049Z,0
2017-11-28T01:00:46.756Z,0
2017-11-28T01:01:48.407Z,0
2017-11-28T01:02:50.520Z,0
2017-11-28T01:03:52.248Z,0
2017-11-28T01:04:53.937Z,0
2017-11-28T01:05:55.671Z,0
2017-11-28T01:06:57.526Z,0
2017-11-28T01:07:59.317Z,0
2017-11-28T01:09:01.122Z,0
2017-11-28T01:10:02.903Z,0
2017-11-28T01:11:04.758Z,0
2017-11-28T01:12:06.517Z,0
2017-11-28T01:13:08.309Z,0
2017-11-28T01:14:10.069Z,0
2017-11-28T01:15:11.840Z,0
2017-11-28T01:16:13.575Z,0
2017-11-28T01:17:15.327Z,0
2017-11-28T01:18:17.205Z,0
2017-11-28T01:19:19.088Z,0
2017-11-28T01:20:20.810Z,0
2017-11-28T01:21:22.554Z,0
2017-11-28T01:22:24.337Z,0
2017-11-28T01:23:26.072Z,0
2017-11-28T01:24:27.827Z,0
2017-11-28T01:25:29.769Z,0
2017-11-28T01:26:31.594Z,0
2017-11-28T01:27:33.348Z,0
2017-11-28T01:28:35.107Z,0
2017-11-28T01:29:36.821Z,0
2017-11-28T01:30:39.055Z,0
2017-11-28T01:31:40.667Z,0
2017-11-28T01:32:42.357Z,0
2017-11-28T01:33:44.648Z,0
2017-11-28T01:34:46.267Z,0
2017-11-28T01:35:47.989Z,0
2017-11-28T01:36:49.790Z,0
2017-11-28T01:37:51.735Z,0
2017-11-28T01:38:53.471Z,0
2017-11-28T01:39:55.380Z,0
2017-11-28T01:40:57.124Z,0
2017-11-28T01:41:58.935Z,0
2017-11-28T01:43:00.934Z,0
2017-11-28T01:44:03.916Z,0
2017-11-28T01:45:05.499Z,0
2017-11-28T01:46:07.212Z,0
2017-11-28T01:47:09.094Z,0
2017-11-28T01:48:11.136Z,0
2017-11-28T01:49:13.256Z,0
2017-11-28T01:50:14.953Z,0
2017-11-28T01:51:16.682Z,0
2017-11-28T01:52:18.542Z,0
2017-11-28T01:53:20.221Z,0
2017-11-28T01:54:21.966Z,0
2017-11-28T01:55:23.715Z,0
2017-11-28T01:56:25.548Z,0
2017-11-28T01:57:27.296Z,0
2017-11-28T01:58:29.267Z,0
2017-11-28T01:59:31.122Z,0
2017-11-28T02:00:32.986Z,0
2017-11-28T02:01:35.311Z,0
2017-11-28T02:02:37.117Z,0
2017-11-28T02:03:39.312Z,0
2017-11-28T02:04:41.044Z,0
2017-11-28T02:05:43.221Z,0
2017-11-28T02:06:45.264Z,0
2017-11-28T02:07:47.292Z,0
2017-11-28T02:08:49.044Z,0
2017-11-28T02:09:50.775Z,0
2017-11-28T02:10:52.530Z,0
2017-11-28T02:11:54.709Z,0
2017-11-28T02:12:56.608Z,0
2017-11-28T02:13:58.310Z,0
2017-11-28T02:15:00.046Z,0
2017-11-28T02:16:01.804Z,0
2017-11-28T02:17:04.565Z,0
2017-11-28T02:18:06.322Z,0
2017-11-28T02:19:08.049Z,0
2017-11-28T02:20:09.839Z,0
2017-11-28T02:21:11.565Z,0
2017-11-28T02:22:13.318Z,0
2017-11-28T02:23:15.057Z,0
2017-11-28T02:24:16.796Z,0
2017-11-28T02:25:18.461Z,0
2017-11-28T02:26:20.345Z,0
2017-11-28T02:27:22.338Z,0
2017-11-28T02:28:24.096Z,0
2017-11-28T02:29:25.908Z,0
2017-11-28T02:30:28.010Z,0
2017-11-28T02:31:29.746Z,0
2017-11-28T02:32:31.579Z,0
2017-11-28T02:33:34.389Z,0
2017-11-28T02:34:36.145Z,0
2017-11-28T02:35:38.006Z,0
2017-11-28T02:36:39.753Z,0
2017-11-28T02:37:41.477Z,0
2017-11-28T02:38:43.290Z,0
2017-11-28T02:39:45.071Z,0
2017-11-28T02:40:46.870Z,0
2017-11-28T02:41:48.638Z,0
2017-11-28T02:42:50.449Z,0
2017-11-28T02:43:52.528Z,0
2017-11-28T02:44:54.804Z,0
2017-11-28T02:45:56.753Z,0
2017-11-28T02:46:58.825Z,0
2017-11-28T02:48:00.412Z,0
2017-11-28T02:49:02.632Z,0
2017-11-28T02:50:04.764Z,0
2017-11-28T02:51:06.531Z,0
2017-11-28T02:52:08.327Z,0
2017-11-28T02:53:10.004Z,0
2017-11-28T02:54:11.786Z,0
2017-11-28T02:55:13.733Z,0
2017-11-28T02:56:15.444Z,0
2017-11-28T02:57:17.242Z,0
2017-11-28T02:58:18.971Z,0
2017-11-28T02:59:20.654Z,0
2017-11-28T03:00:22.401Z,0
2017-11-28T03:01:24.252Z,0
2017-11-28T03:02:25.988Z,0
2017-11-28T03:03:27.780Z,0
2017-11-28T03:04:29.632Z,0
2017-11-28T03:05:31.879Z,0
2017-11-28T03:06:33.850Z,0
2017-11-28T03:07:35.552Z,0
2017-11-28T03:08:37.436Z,0
2017-11-28T03:09:39.118Z,0
2017-11-28T03:10:40.898Z,0
2017-11-28T03:11:42.642Z,0
2017-11-28T03:12:44.397Z,0
2017-11-28T03:13:46.234Z,0
2017-11-28T03:14:48.484Z,0
2017-11-28T03:15:50.287Z,0
2017-11-28T03:16:52.425Z,0
2017-11-28T03:17:54.177Z,0
2017-11-28T03:18:56.258Z,0
2017-11-28T03:19:57.953Z,0
2017-11-28T03:20:59.706Z,0
2017-11-28T03:22:01.696Z,0
2017-11-28T03:23:03.397Z,0
2017-11-28T03:24:05.185Z,0
2017-11-28T03:25:06.915Z,0
2017-11-28T03:26:09.032Z,0
2017-11-28T03:27:10.778Z,0
2017-11-28T03:28:13.051Z,0
2017-11-28T03:29:14.956Z,0
2017-11-28T03:30:16.622Z,0
2017-11-28T03:31:18.553Z,0
2017-11-28T03:32:20.317Z,0
2017-11-28T03:33:22.116Z,0
2017-11-28T03:34:24.050Z,0
2017-11-28T03:35:25.817Z,0
2017-11-28T03:36:27.675Z,0
2017-11-28T03:37:29.880Z,0
2017-11-28T03:38:31.869Z,0
2017-11-28T03:39:34.777Z,0
2017-11-28T03:40:36.446Z,0
2017-11-28T03:41:38.455Z,0
2017-11-28T03:42:40.210Z,0
2017-11-28T03:43:42.046Z,0
2017-11-28T03:44:43.791Z,0
2017-11-28T03:45:45.627Z,0
2017-11-28T03:46:47.427Z,0
2017-11-28T03:47:49.306Z,0
2017-11-28T03:48:51.040Z,0
2017-11-28T03:49:52.757Z,0
2017-11-28T03:50:54.526Z,0
2017-11-28T03:51:56.461Z,0
2017-11-28T03:52:58.179Z,0
2017-11-28T03:54:00.504Z,0
2017-11-28T03:55:02.186Z,0
2017-11-28T03:56:04.042Z,0
2017-11-28T03:57:05.804Z,0
2017-11-28T03:58:07.556Z,0
2017-11-28T03:59:09.543Z,0
2017-11-28T04:00:11.832Z,0
2017-11-28T04:01:13.512Z,0
2017-11-28T04:02:15.225Z,0
2017-11-28T04:03:17.451Z,0
2017-11-28T04:04:19.531Z,0
2017-11-28T04:05:21.630Z,0
2017-11-28T04:06:23.575Z,0
2017-11-28T04:07:25.521Z,0
2017-11-28T04:08:27.408Z,0
2017-11-28T04:09:29.773Z,0
2017-11-28T04:10:31.500Z,0
2017-11-28T04:11:33.313Z,0
2017-11-28T04:12:35.015Z,0
2017-11-28T04:13:37.235Z,0
2017-11-28T04:14:39.182Z,0
2017-11-28T04:15:41.357Z,0
2017-11-28T04:16:43.572Z,0
2017-11-28T04:17:45.563Z,0
2017-11-28T04:18:47.335Z,0
2017-11-28T04:19:49.285Z,0
2017-11-28T04:20:51.014Z,0
2017-11-28T04:21:52.796Z,0
2017-11-28T04:22:54.799Z,0
2017-11-28T04:23:56.488Z,0
2017-11-28T04:24:58.240Z,0
2017-11-28T04:26:00.435Z,0
2017-11-28T04:27:02.302Z,0
2017-11-28T04:28:04.015Z,0
2017-11-28T04:29:05.954Z,0
2017-11-28T04:30:08.043Z,0
2017-11-28T04:31:10.279Z,0
2017-11-28T04:32:12.183Z,0
2017-11-28T04:33:13.980Z,0
2017-11-28T04:34:16.213Z,0
2017-11-28T04:35:17.901Z,0
2017-11-28T04:36:19.616Z,0
2017-11-28T04:37:21.827Z,0
2017-11-28T04:38:23.502Z,0
2017-11-28T04:39:25.289Z,0
2017-11-28T04:40:27.181Z,0
2017-11-28T04:41:28.956Z,0
2017-11-28T04:42:30.827Z,0
2017-11-28T04:43:32.933Z,0
2017-11-28T04:44:36.187Z,0
2017-11-28T04:45:38.043Z,0
2017-11-28T04:46:40.225Z,0
2017-11-28T04:47:42.218Z,0
2017-11-28T04:48:43.960Z,0
2017-11-28T04:49:45.903Z,0
2017-11-28T04:50:47.656Z,0
2017-11-28T04:51:49.745Z,0
2017-11-28T04:52:51.743Z,0
2017-11-28T04:53:53.567Z,0
2017-11-28T04:54:55.297Z,0
2017-11-28T04:55:57.604Z,0
2017-11-28T04:56:59.239Z,0
2017-11-28T04:58:01.428Z,0
2017-11-28T04:59:03.418Z,0
2017-11-28T05:00:05.509Z,0
2017-11-28T05:01:07.257Z,0
2017-11-28T05:02:09.081Z,0
2017-11-28T05:03:11.179Z,0
2017-11-28T05:04:12.981Z,0
2017-11-28T05:05:15.224Z,0
2017-11-28T05:06:17.147Z,0
2017-11-28T05:07:18.844Z,0
2017-11-28T05:08:21.231Z,0
2017-11-28T05:09:22.902Z,0
2017-11-28T05:10:24.639Z,0
2017-11-28T05:11:26.343Z,0
2017-11-28T05:12:28.119Z,0
2017-11-28T05:13:30.406Z,0
2017-11-28T05:14:32.585Z,0
2017-11-28T05:15:34.439Z,0
2017-11-28T05:16:36.201Z,0
2017-11-28T05:17:38.407Z,0
2017-11-28T05:18:40.122Z,0
2017-11-28T05:19:41.894Z,0
2017-11-28T05:20:44.104Z,0
2017-11-28T05:21:45.770Z,0
2017-11-28T05:22:47.572Z,0
2017-11-28T05:23:49.406Z,0
2017-11-28T05:24:51.276Z,0
2017-11-28T05:25:53.456Z,0
2017-11-28T05:26:55.213Z,0
2017-11-28T05:27:56.934Z,0
2017-11-28T05:28:59.103Z,0
2017-11-28T05:30:00.953Z,0
2017-11-28T05:31:02.794Z,0
2017-11-28T05:32:04.563Z,0
2017-11-28T05:33:06.344Z,0
2017-11-28T05:34:08.601Z,0
2017-11-28T05:35:10.308Z,0
2017-11-28T05:36:12.246Z,0
2017-11-28T05:37:13.988Z,0
2017-11-28T05:38:15.839Z,0
2017-11-28T05:39:18.045Z,0
2017-11-28T05:40:19.715Z,0
2017-11-28T05:41:21.992Z,0
2017-11-28T05:42:23.792Z,0
2017-11-28T05:43:25.563Z,0
2017-11-28T05:44:27.328Z,0
2017-11-28T05:45:29.439Z,0
2017-11-28T05:46:31.135Z,0
2017-11-28T05:47:33.086Z,0
2017-11-28T05:48:34.914Z,0
2017-11-28T05:49:37.074Z,0
2017-11-28T05:50:39.029Z,0
2017-11-28T05:51:40.736Z,0
2017-11-28T05:52:43.065Z,0
2017-11-28T05:53:44.901Z,0
2017-11-28T05:54:47.336Z,0
2017-11-28T05:55:48.988Z,0
2017-11-28T05:56:50.664Z,0
2017-11-28T05:57:52.656Z,0
2017-11-28T05:58:54.918Z,0
2017-11-28T05:59:56.591Z,0
2017-11-28T06:00:58.513Z,0
2017-11-28T06:02:00.206Z,0
2017-11-28T06:03:01.912Z,0
2017-11-28T06:04:04.744Z,0
2017-11-28T06:05:06.901Z,0
2017-11-28T06:06:08.678Z,0
2017-11-28T06:07:10.369Z,0
2017-11-28T06:08:12.172Z,0
2017-11-28T06:09:13.930Z,0
2017-11-28T06:10:15.847Z,0
2017-11-28T06:11:17.836Z,0
2017-11-28T06:12:20.018Z,0
2017-11-28T06:13:21.768Z,0
2017-11-28T06:14:23.601Z,0
2017-11-28T06:15:25.387Z,0
2017-11-28T06:16:27.609Z,0
2017-11-28T06:17:29.286Z,0
2017-11-28T06:18:30.982Z,0
2017-11-28T06:19:33.134Z,0
2017-11-28T06:20:34.824Z,0
2017-11-28T06:21:36.547Z,0
2017-11-28T06:22:38.382Z,0
2017-11-28T06:23:40.560Z,0
2017-11-28T06:24:42.230Z,0
2017-11-28T06:25:43.952Z,0
2017-11-28T06:26:45.709Z,0
2017-11-28T06:27:47.394Z,0
2017-11-28T06:28:49.079Z,0
2017-11-28T06:29:50.778Z,0
2017-11-28T06:30:52.465Z,0
2017-11-28T06:31:54.199Z,0
2017-11-28T06:32:55.777Z,0
2017-11-28T06:33:57.497Z,0
2017-11-28T06:34:59.155Z,4
2017-11-28T06:36:00.790Z,4
2017-11-28T06:37:02.401Z,4
2017-11-28T06:38:04.418Z,0
2017-11-28T06:39:06.286Z,4
2017-11-28T06:40:08.067Z,4
2017-11-28T06:41:09.828Z,4
2017-11-28T06:42:11.382Z,8
2017-11-28T06:43:13.143Z,8
2017-11-28T06:44:14.805Z,12
2017-11-28T06:45:16.547Z,12
2017-11-28T06:46:18.286Z,16
2017-11-28T06:47:19.924Z,16
2017-11-28T06:48:21.691Z,20
2017-11-28T06:49:23.308Z,24
2017-11-28T06:50:25.007Z,28
2017-11-28T06:51:26.637Z,32
2017-11-28T06:52:28.324Z,36
2017-11-28T06:53:29.830Z,48
2017-11-28T06:54:31.620Z,48
2017-11-28T06:55:33.263Z,60
2017-11-28T06:56:34.967Z,68
2017-11-28T06:57:36.879Z,76
2017-11-28T06:58:38.639Z,88
2017-11-28T06:59:40.347Z,104
2017-11-28T07:00:41.914Z,112
2017-11-28T07:01:43.703Z,128
2017-11-28T07:02:45.388Z,140
2017-11-28T07:03:47.158Z,156
2017-11-28T07:04:48.741Z,176
2017-11-28T07:05:50.436Z,192
2017-11-28T07:06:52.123Z,208
2017-11-28T07:07:53.862Z,228
2017-11-28T07:08:55.612Z,244
2017-11-28T07:09:57.240Z,264
2017-11-28T07:10:58.922Z,284
2017-11-28T07:12:00.672Z,308
2017-11-28T07:13:02.516Z,328
2017-11-28T07:14:04.308Z,348
2017-11-28T07:15:06.063Z,372
2017-11-28T07:16:08.040Z,396
2017-11-28T07:17:09.809Z,420
2017-11-28T07:18:11.539Z,452
2017-11-28T07:19:13.289Z,492
2017-11-28T07:20:14.995Z,512
2017-11-28T07:21:16.695Z,524
2017-11-28T07:22:18.537Z,548
2017-11-28T07:23:20.291Z,568
2017-11-28T07:24:22.037Z,580
2017-11-28T07:25:23.708Z,612
2017-11-28T07:26:25.413Z,644
2017-11-28T07:27:26.970Z,684
2017-11-28T07:28:28.947Z,704
2017-11-28T07:29:30.600Z,740
2017-11-28T07:30:32.268Z,768
2017-11-28T07:31:33.934Z,792
2017-11-28T07:32:35.764Z,792
2017-11-28T07:33:37.513Z,804
2017-11-28T07:34:39.146Z,860
2017-11-28T07:35:41.153Z,924
2017-11-28T07:36:42.978Z,996
2017-11-28T07:37:44.558Z,1112
2017-11-28T07:38:46.335Z,1240
2017-11-28T07:39:48.033Z,1340
2017-11-28T07:40:49.663Z,1496
2017-11-28T07:41:51.335Z,1604
2017-11-28T07:42:53.433Z,1816
2017-11-28T07:43:55.206Z,1952
2017-11-28T07:44:56.998Z,1992
2017-11-28T07:45:58.972Z,1864
2017-11-28T07:47:00.616Z,1728
2017-11-28T07:48:02.337Z,1816
2017-11-28T07:49:04.066Z,1956
2017-11-28T07:50:05.858Z,1776
2017-11-28T07:51:07.923Z,1596
2017-11-28T07:52:09.537Z,1616
2017-11-28T07:53:11.223Z,1484
2017-11-28T07:54:13.258Z,1256
2017-11-28T07:55:15.190Z,1288
2017-11-28T07:56:16.953Z,1440
2017-11-28T07:57:18.757Z,1584
2017-11-28T07:58:20.535Z,1416
2017-11-28T07:59:22.292Z,1272
2017-11-28T08:00:24.029Z,1464
2017-11-28T08:01:26.173Z,1568
2017-11-28T08:02:27.931Z,1684
2017-11-28T08:03:29.674Z,1948
2017-11-28T08:04:31.445Z,1748
2017-11-28T08:05:33.326Z,1432
2017-11-28T08:06:34.949Z,1340
2017-11-28T08:07:37.190Z,1652
2017-11-28T08:08:39.375Z,1964
2017-11-28T08:09:41.498Z,2216
2017-11-28T08:10:43.651Z,2392
2017-11-28T08:11:45.713Z,2336
2017-11-28T08:12:47.796Z,2308
2017-11-28T08:13:49.920Z,2508
2017-11-28T08:14:51.488Z,2564
2017-11-28T08:15:53.108Z,2108
2017-11-28T08:16:54.705Z,2080
2017-11-28T08:17:56.435Z,2044
2017-11-28T08:18:58.202Z,2136
2017-11-28T08:19:59.905Z,2108
2017-11-28T08:21:02.092Z,2164
2017-11-28T08:22:03.758Z,2508
2017-11-28T08:23:05.747Z,2996
2017-11-28T08:24:07.564Z,3412
2017-11-28T08:25:09.209Z,3220
2017-11-28T08:26:10.703Z,2976
2017-11-28T08:27:12.437Z,2900
2017-11-28T08:28:14.179Z,2816
2017-11-28T08:29:15.937Z,2760
2017-11-28T08:30:17.458Z,2692
2017-11-28T08:31:19.217Z,2804
2017-11-28T08:32:20.843Z,2420
2017-11-28T08:33:22.284Z,2324
2017-11-28T08:34:23.923Z,2496
2017-11-28T08:35:25.709Z,3180
2017-11-28T08:36:27.442Z,3608
2017-11-28T08:37:28.983Z,3788
2017-11-28T08:38:30.722Z,3836
2017-11-28T08:39:32.563Z,3828
2017-11-28T08:40:34.185Z,3712
2017-11-28T08:41:35.946Z,3528
2017-11-28T08:42:38.117Z,7228
2017-11-28T08:43:39.570Z,4928
2017-11-28T08:44:41.262Z,3652
2017-11-28T08:45:43.489Z,3592
2017-11-28T08:46:45.498Z,3224
2017-11-28T08:47:47.259Z,2560
2017-11-28T08:48:49.019Z,2984
2017-11-28T08:49:50.905Z,3328
2017-11-28T08:50:52.653Z,5452
2017-11-28T08:51:54.256Z,6832
2017-11-28T08:52:56.338Z,8068
2017-11-28T08:53:58.227Z,6804
2017-11-28T08:54:59.952Z,5752
2017-11-28T08:56:01.615Z,5188
2017-11-28T08:57:03.391Z,4756
2017-11-28T08:58:05.550Z,4184
2017-11-28T08:59:07.168Z,3644
2017-11-28T09:00:09.003Z,4044
2017-11-28T09:01:10.777Z,4744
2017-11-28T09:02:12.508Z,5020
2017-11-28T09:03:14.184Z,4388
2017-11-28T09:04:16.460Z,5372
2017-11-28T09:05:18.643Z,3872
2017-11-28T09:06:20.419Z,4540
2017-11-28T09:07:22.110Z,4912
2017-11-28T09:08:23.952Z,6140
2017-11-28T09:09:25.640Z,4568
2017-11-28T09:10:27.434Z,3604
2017-11-28T09:11:29.029Z,3992
2017-11-28T09:12:30.905Z,5212
2017-11-28T09:13:32.783Z,4436
2017-11-28T09:14:34.849Z,5328
2017-11-28T09:15:36.613Z,6196
2017-11-28T09:16:38.470Z,5856
2017-11-28T09:17:40.028Z,6412
2017-11-28T09:18:42.072Z,5256
2017-11-28T09:19:44.007Z,6616
2017-11-28T09:20:45.822Z,6232
2017-11-28T09:21:47.563Z,6564
2017-11-28T09:22:49.328Z,9108
2017-11-28T09:23:51.027Z,10072
2017-11-28T09:24:53.012Z,6796
2017-11-28T09:25:54.946Z,6036
2017-11-28T09:26:56.850Z,5340
2017-11-28T09:27:58.545Z,5388
2017-11-28T09:29:00.380Z,5132
2017-11-28T09:30:02.305Z,4084
2017-11-28T09:31:04.151Z,3824
2017-11-28T09:32:05.856Z,4048
2017-11-28T09:33:07.654Z,3880
2017-11-28T09:34:09.334Z,8460
2017-11-28T09:35:10.940Z,10408
2017-11-28T09:36:12.942Z,10984
2017-11-28T09:37:14.634Z,7172
2017-11-28T09:38:17.347Z,4624
2017-11-28T09:39:19.204Z,5320
2017-11-28T09:40:21.121Z,10792
2017-11-28T09:41:23.014Z,3836
2017-11-28T09:42:24.911Z,3436
2017-11-28T09:43:26.816Z,3540
2017-11-28T09:44:28.656Z,4892
2017-11-28T09:45:30.613Z,7980
2017-11-28T09:46:32.419Z,5824
2017-11-28T09:47:34.225Z,10600
2017-11-28T09:48:35.972Z,11864
2017-11-28T09:49:37.683Z,11732
2017-11-28T09:50:40.013Z,8500
2017-11-28T09:51:41.748Z,11960
2017-11-28T09:52:43.580Z,10080
2017-11-28T09:53:45.331Z,5580
2017-11-28T09:54:47.073Z,11648
2017-11-28T09:55:48.822Z,4556
2017-11-28T09:56:50.673Z,5836
2017-11-28T09:57:52.987Z,6652
2017-11-28T09:58:54.642Z,4084
2017-11-28T09:59:56.936Z,4248
2017-11-28T10:00:58.503Z,5948
2017-11-28T10:02:00.416Z,6912
2017-11-28T10:03:02.117Z,14304
2017-11-28T10:04:04.906Z,12376
2017-11-28T10:05:07.213Z,12680
2017-11-28T10:06:09.146Z,13568
2017-11-28T10:07:10.865Z,12460
2017-11-28T10:08:12.853Z,6740
2017-11-28T10:09:15.158Z,13044
2017-11-28T10:10:17.340Z,13308
2017-11-28T10:11:19.108Z,13760
2017-11-28T10:12:21.134Z,8464
2017-11-28T10:13:23.347Z,6584
2017-11-28T10:14:24.975Z,5952
2017-11-28T10:15:26.797Z,5340
2017-11-28T10:16:28.487Z,5020
2017-11-28T10:17:30.192Z,13408
2017-11-28T10:18:31.917Z,13888
2017-11-28T10:19:33.725Z,5916
2017-11-28T10:20:35.260Z,5464
2017-11-28T10:21:37.044Z,11300
2017-11-28T10:22:38.780Z,5716
2017-11-28T10:23:40.529Z,6588
2017-11-28T10:24:42.629Z,7400
2017-11-28T10:25:44.271Z,7180
2017-11-28T10:26:46.393Z,4276
2017-11-28T10:27:48.201Z,5092
2017-11-28T10:28:50.043Z,5076
2017-11-28T10:29:51.557Z,4868
2017-11-28T10:30:53.223Z,10676
2017-11-28T10:31:54.936Z,6432
2017-11-28T10:32:56.517Z,11160
2017-11-28T10:33:58.694Z,4084
2017-11-28T10:35:00.889Z,4900
2017-11-28T10:36:02.560Z,5524
2017-11-28T10:37:04.375Z,3672
2017-11-28T10:38:06.209Z,3956
2017-11-28T10:39:07.759Z,3340
2017-11-28T10:40:09.541Z,3676
2017-11-28T10:41:11.220Z,4664
2017-11-28T10:42:13.090Z,10124
2017-11-28T10:43:14.759Z,8068
2017-11-28T10:44:16.802Z,17152
2017-11-28T10:45:18.452Z,8496
2017-11-28T10:46:20.216Z,6320
2017-11-28T10:47:22.189Z,12432
2017-11-28T10:48:23.997Z,4452
2017-11-28T10:49:25.716Z,4644
2017-11-28T10:50:27.488Z,5712
2017-11-28T10:51:29.146Z,6188
2017-11-28T10:52:30.803Z,6032
2017-11-28T10:53:32.322Z,5532
2017-11-28T10:54:33.978Z,9356
2017-11-28T10:55:35.687Z,11560
2017-11-28T10:56:37.259Z,11624
2017-11-28T10:57:39.132Z,6308
2017-11-28T10:58:40.876Z,6448
2017-11-28T10:59:43.104Z,7084
2017-11-28T11:00:44.879Z,7540
2017-11-28T11:01:46.691Z,6052
2017-11-28T11:02:48.886Z,5084
2017-11-28T11:03:50.664Z,5164
2017-11-28T11:04:52.307Z,6976
2017-11-28T11:05:54.037Z,4584
2017-11-28T11:06:55.811Z,5468
2017-11-28T11:07:57.463Z,6692
2017-11-28T11:08:59.184Z,7296
2017-11-28T11:10:00.624Z,8428
2017-11-28T11:11:02.401Z,8932
2017-11-28T11:12:04.254Z,11556
2017-11-28T11:13:06.076Z,11080
2017-11-28T11:14:07.761Z,19840
2017-11-28T11:15:09.483Z,17536
2017-11-28T11:16:11.350Z,9836
2017-11-28T11:17:13.455Z,9676
2017-11-28T11:18:15.091Z,11508
2017-11-28T11:19:16.958Z,9212
2017-11-28T11:20:18.778Z,8524
2017-11-28T11:21:20.454Z,8428
2017-11-28T11:22:22.301Z,8668
2017-11-28T11:23:24.008Z,9268
2017-11-28T11:24:25.939Z,9468
2017-11-28T11:25:27.668Z,10156
2017-11-28T11:26:29.594Z,12068
2017-11-28T11:27:31.430Z,12044
2017-11-28T11:28:33.066Z,8848
2017-11-28T11:29:34.543Z,10768
2017-11-28T11:30:36.130Z,13560
2017-11-28T11:31:37.657Z,11860
2017-11-28T11:32:39.248Z,4924
2017-11-28T11:33:41.034Z,4504
2017-11-28T11:34:42.639Z,3844
2017-11-28T11:35:44.435Z,4348
2017-11-28T11:36:46.117Z,5200
2017-11-28T11:37:47.656Z,13676
2017-11-28T11:38:49.432Z,12928
2017-11-28T11:39:51.117Z,12140
2017-11-28T11:40:52.902Z,11984
2017-11-28T11:41:54.629Z,4396
2017-11-28T11:42:56.281Z,3900
2017-11-28T11:43:57.901Z,3612
2017-11-28T11:44:59.635Z,3508
2017-11-28T11:46:01.292Z,3316
2017-11-28T11:47:02.849Z,3412
2017-11-28T11:48:04.740Z,3572
2017-11-28T11:49:06.202Z,3668
2017-11-28T11:50:07.983Z,3752
2017-11-28T11:51:09.605Z,4480
2017-11-28T11:52:11.234Z,3876
2017-11-28T11:53:12.932Z,4556
2017-11-28T11:54:14.518Z,7012
2017-11-28T11:55:16.302Z,12356
2017-11-28T11:56:18.078Z,6676
2017-11-28T11:57:19.819Z,6840
2017-11-28T11:58:21.494Z,7776
2017-11-28T11:59:23.197Z,9644
2017-11-28T12:00:24.969Z,10336
2017-11-28T12:01:26.679Z,18720
2017-11-28T12:02:28.568Z,16704
2017-11-28T12:03:30.449Z,11128
2017-11-28T12:04:31.968Z,13844
2017-11-28T12:05:33.693Z,15552
2017-11-28T12:06:35.374Z,14720
2017-11-28T12:07:37.082Z,15072
2017-11-28T12:08:38.821Z,14496
2017-11-28T12:09:40.358Z,13856
2017-11-28T12:10:42.166Z,14144
2017-11-28T12:11:43.983Z,14016
2017-11-28T12:12:46.134Z,13412
2017-11-28T12:13:47.884Z,7652
2017-11-28T12:14:49.701Z,13304
2017-11-28T12:15:51.231Z,13612
2017-11-28T12:16:53.172Z,13120
2017-11-28T12:17:54.819Z,13120
2017-11-28T12:18:56.551Z,12964
2017-11-28T12:19:58.123Z,12940
2017-11-28T12:20:59.931Z,6692
2017-11-28T12:22:01.739Z,12176
2017-11-28T12:23:03.501Z,12392
2017-11-28T12:24:05.345Z,12764
2017-11-28T12:25:07.055Z,13092
2017-11-28T12:26:08.846Z,9048
2017-11-28T12:27:10.590Z,9240
2017-11-28T12:28:12.357Z,8700
2017-11-28T12:29:14.172Z,15712
2017-11-28T12:30:15.722Z,9876
2017-11-28T12:31:17.544Z,10676
2017-11-28T12:32:19.156Z,12352
2017-11-28T12:33:20.763Z,7380
2017-11-28T12:34:22.608Z,13160
2017-11-28T12:35:24.400Z,14144
2017-11-28T12:36:26.200Z,13556
2017-11-28T12:37:27.754Z,12804
2017-11-28T12:38:29.574Z,11380
2017-11-28T12:39:31.382Z,7108
2017-11-28T12:40:32.896Z,9336
2017-11-28T12:41:34.749Z,10216
2017-11-28T12:42:36.500Z,9172
2017-11-28T12:43:38.094Z,10484
2017-11-28T12:44:39.926Z,13824
2017-11-28T12:45:41.715Z,10100
2017-11-28T12:46:43.376Z,9248
2017-11-28T12:47:44.898Z,10104
2017-11-28T12:48:46.356Z,8848
2017-11-28T12:49:48.159Z,13004
2017-11-28T12:50:49.917Z,9128
2017-11-28T12:51:51.454Z,7700
2017-11-28T12:52:53.089Z,9120
2017-11-28T12:53:54.613Z,9164
2017-11-28T12:54:56.385Z,5060
2017-11-28T12:55:58.228Z,6492
2017-11-28T12:56:59.998Z,6308
2017-11-28T12:58:01.713Z,6052
2017-11-28T12:59:03.446Z,5268
2017-11-28T13:00:05.082Z,4424
2017-11-28T13:01:06.548Z,4460
2017-11-28T13:02:08.370Z,5448
2017-11-28T13:03:09.987Z,5900
2017-11-28T13:04:11.736Z,5924
2017-11-28T13:05:13.438Z,5740
2017-11-28T13:06:15.193Z,5072
2017-11-28T13:07:16.720Z,4556
2017-11-28T13:08:18.194Z,4384
2017-11-28T13:09:19.928Z,4148
2017-11-28T13:10:21.540Z,4012
2017-11-28T13:11:23.444Z,4116
2017-11-28T13:12:25.276Z,3988
2017-11-28T13:13:27.157Z,4060
2017-11-28T13:14:28.904Z,4796
2017-11-28T13:15:30.650Z,4896
2017-11-28T13:16:32.381Z,4768
2017-11-28T13:17:33.964Z,4496
2017-11-28T13:18:35.505Z,4196
2017-11-28T13:19:37.001Z,4676
2017-11-28T13:20:38.530Z,4896
2017-11-28T13:21:40.281Z,5772
2017-11-28T13:22:42.099Z,6748
2017-11-28T13:23:43.761Z,7184
2017-11-28T13:24:45.272Z,6248
2017-11-28T13:25:46.960Z,6328
2017-11-28T13:26:48.761Z,5440
2017-11-28T13:27:50.370Z,4724
2017-11-28T13:28:52.334Z,4556
2017-11-28T13:29:54.067Z,4432
2017-11-28T13:30:55.532Z,3948
2017-11-28T13:31:57.250Z,3864
2017-11-28T13:32:58.973Z,4372
2017-11-28T13:34:00.520Z,4544
2017-11-28T13:35:02.054Z,4484
2017-11-28T13:36:03.812Z,4512
2017-11-28T13:37:05.542Z,5076
2017-11-28T13:38:07.390Z,7240
2017-11-28T13:39:08.958Z,5912
2017-11-28T13:40:10.710Z,5600
2017-11-28T13:41:12.377Z,5516
2017-11-28T13:42:13.929Z,5464
2017-11-28T13:43:15.671Z,4752
2017-11-28T13:44:17.186Z,4172
2017-11-28T13:45:18.941Z,4276
2017-11-28T13:46:20.683Z,4488
2017-11-28T13:47:22.221Z,4484
2017-11-28T13:48:23.978Z,4640
2017-11-28T13:49:25.736Z,4896
2017-11-28T13:50:27.447Z,5008
2017-11-28T13:51:29.148Z,4972
2017-11-28T13:52:30.891Z,4360
2017-11-28T13:53:32.581Z,3856
2017-11-28T13:54:34.338Z,3736
2017-11-28T13:55:36.011Z,3372
2017-11-28T13:56:37.758Z,3236
2017-11-28T13:57:39.573Z,3124
2017-11-28T13:58:41.244Z,3268
2017-11-28T13:59:42.728Z,3016
2017-11-28T14:00:44.393Z,3416
2017-11-28T14:01:46.293Z,2804
2017-11-28T14:02:48.128Z,3132
2017-11-28T14:03:49.811Z,3720
2017-11-28T14:04:51.547Z,4720
2017-11-28T14:05:53.072Z,4512
2017-11-28T14:06:54.932Z,4916
2017-11-28T14:07:56.441Z,4524
2017-11-28T14:08:58.171Z,3444
2017-11-28T14:10:00.070Z,3012
2017-11-28T14:11:01.624Z,2456
2017-11-28T14:12:03.416Z,2240
2017-11-28T14:13:05.144Z,2104
2017-11-28T14:14:06.679Z,1996
2017-11-28T14:15:08.152Z,2120
2017-11-28T14:16:09.927Z,3600
2017-11-28T14:17:11.768Z,3712
2017-11-28T14:18:13.557Z,3784
2017-11-28T14:19:15.049Z,3664
2017-11-28T14:20:16.604Z,4156
2017-11-28T14:21:18.275Z,4060
2017-11-28T14:22:20.060Z,4148
2017-11-28T14:23:21.831Z,3912